Back to Top

Language: 

My Weather Underground Personal Weather Station Historical Data with Graphs...

Delerius Weather Station Historical Data
Daily Summary for March 22, 2017 Units:  Metric    English   Both
« Previous Day
Next Day »
Daily Weekly Monthly Yearly Custom
  High: Low: Average:
Temperature: 6.2 °C 1.9 °C 4.6 °C
Dew Point: 4.2 °C 1.2 °C 3.3 °C
Humidity: 96 % 84 % 91 %
Wind Speed: 16.1 km/h 0 km/h 8.4 km/h
Wind Gust: 30.6 km/h - -
Wind:- - ESE
Pressure: 1012.8 hPa 1002.3 hPa -
Precipitation: 4.83 mm    
Historical Graphs
 
 
Tabular Data for March 22, 2017
Time Temperature Dew Point Pressure Wind Wind Speed Wind Gust Humidity Rainfall Rate (Hourly) solar Conditions
00:04 4.6 °C 3.1 °C 1005 hPa South 3.2 km/h 9.7 km/h 90 % 0.25 mm 0 W/m2
00:09 4.6 °C 3.1 °C 1005 hPa South 3.2 km/h 9.7 km/h 90 % 0.25 mm 0 W/m2
00:14 4.5 °C 3 °C 1005 hPa South 3.2 km/h 9.7 km/h 90 % 0.25 mm 0 W/m2
00:19 4.5 °C 3.2 °C 1005 hPa SSE 4.8 km/h 11.3 km/h 91 % 0.25 mm 0 W/m2
00:24 4.4 °C 3.1 °C 1005 hPa SSE 3.2 km/h 11.3 km/h 91 % 0.25 mm 0 W/m2
00:29 4.5 °C 3.2 °C 1005 hPa SSE 3.2 km/h 9.7 km/h 91 % 0.25 mm 0 W/m2
00:34 4.5 °C 3.2 °C 1004.6 hPa SE 6.4 km/h 12.9 km/h 91 % 0.25 mm 0 W/m2
00:39 4.5 °C 3.2 °C 1004.6 hPa SE 8 km/h 12.9 km/h 91 % 0.25 mm 0 W/m2
00:44 4.6 °C 3.4 °C 1004.6 hPa SSE 6.4 km/h 12.9 km/h 92 % 0.25 mm 0 W/m2
00:49 4.6 °C 3.4 °C 1004.6 hPa SE 4.8 km/h 9.7 km/h 92 % 0 mm 0 W/m2
00:54 4.6 °C 3.4 °C 1004.6 hPa SE 6.4 km/h 12.9 km/h 92 % 0 mm 0 W/m2
00:59 4.5 °C 3.3 °C 1004.3 hPa ESE 6.4 km/h 12.9 km/h 92 % 0 mm 0 W/m2
01:04 4.5 °C 3.3 °C 1004.3 hPa ESE 8 km/h 12.9 km/h 92 % 0 mm 0 W/m2
01:09 4.5 °C 3.3 °C 1004.3 hPa ESE 6.4 km/h 12.9 km/h 92 % 0 mm 0 W/m2
01:14 4.5 °C 3.3 °C 1004.3 hPa ESE 6.4 km/h 11.3 km/h 92 % 0.25 mm 0 W/m2
01:19 4.5 °C 3.3 °C 1004.3 hPa ESE 6.4 km/h 11.3 km/h 92 % 0.25 mm 0 W/m2
01:24 4.4 °C 3.4 °C 1004.3 hPa ESE 6.4 km/h 12.9 km/h 93 % 0.25 mm 0 W/m2
01:29 4.5 °C 3.4 °C 1004.3 hPa ESE 4.8 km/h 12.9 km/h 93 % 0.25 mm 0 W/m2
01:34 4.5 °C 3.4 °C 1004.3 hPa ESE 4.8 km/h 11.3 km/h 93 % 0.25 mm 0 W/m2
01:40 4.5 °C 3.4 °C 1004.3 hPa East 4.8 km/h 11.3 km/h 93 % 0.25 mm 0 W/m2
01:45 4.5 °C 3.4 °C 1004.3 hPa East 6.4 km/h 11.3 km/h 93 % 0.25 mm 0 W/m2
01:50 4.5 °C 3.4 °C 1003.9 hPa East 6.4 km/h 12.9 km/h 93 % 0.25 mm 0 W/m2
01:55 4.5 °C 3.4 °C 1003.9 hPa East 6.4 km/h 12.9 km/h 93 % 0.25 mm 0 W/m2
02:00 4.6 °C 3.6 °C 1003.9 hPa East 6.4 km/h 12.9 km/h 93 % 0.51 mm 0 W/m2
02:05 4.5 °C 3.6 °C 1003.9 hPa East 4.8 km/h 11.3 km/h 94 % 0.51 mm 0 W/m2
02:10 4.5 °C 3.6 °C 1003.9 hPa East 4.8 km/h 11.3 km/h 94 % 0.25 mm 0 W/m2
02:15 4.5 °C 3.6 °C 1003.6 hPa East 6.4 km/h 12.9 km/h 94 % 0.25 mm 0 W/m2
02:20 4.4 °C 3.5 °C 1003.6 hPa East 8 km/h 12.9 km/h 94 % 0.25 mm 0 W/m2
02:25 4.4 °C 3.5 °C 1003.3 hPa East 8 km/h 14.5 km/h 94 % 0.25 mm 0 W/m2
02:30 4.4 °C 3.5 °C 1003.3 hPa East 8 km/h 14.5 km/h 94 % 0.25 mm 0 W/m2
02:35 4.4 °C 3.5 °C 1003.3 hPa East 8 km/h 14.5 km/h 94 % 0.25 mm 0 W/m2
02:40 4.4 °C 3.5 °C 1003.3 hPa East 8 km/h 14.5 km/h 94 % 0.25 mm 0 W/m2
02:45 4.4 °C 3.5 °C 1002.9 hPa ESE 8 km/h 16.1 km/h 94 % 0.25 mm 0 W/m2
02:50 4.3 °C 3.4 °C 1002.9 hPa ESE 8 km/h 16.1 km/h 94 % 0.25 mm 0 W/m2
02:55 4.3 °C 3.4 °C 1003.3 hPa ESE 9.7 km/h 19.3 km/h 94 % 0.25 mm 0 W/m2
03:00 4.3 °C 3.4 °C 1003.3 hPa ESE 11.3 km/h 19.3 km/h 94 % 0 mm 0 W/m2
03:05 4.3 °C 3.4 °C 1003.3 hPa ESE 11.3 km/h 17.7 km/h 94 % 0 mm 0 W/m2
03:10 4.3 °C 3.4 °C 1003.3 hPa ESE 9.7 km/h 14.5 km/h 94 % 0 mm 0 W/m2
03:15 4.3 °C 3.4 °C 1003.6 hPa ESE 8 km/h 12.9 km/h 94 % 0 mm 0 W/m2
03:20 4.3 °C 3.4 °C 1003.3 hPa ESE 6.4 km/h 12.9 km/h 94 % 0 mm 0 W/m2
03:25 4.3 °C 3.4 °C 1003.3 hPa East 6.4 km/h 12.9 km/h 94 % 0 mm 0 W/m2
03:30 4.3 °C 3.4 °C 1003.3 hPa East 6.4 km/h 12.9 km/h 94 % 0 mm 0 W/m2
03:35 4.3 °C 3.4 °C 1003.3 hPa ESE 8 km/h 12.9 km/h 94 % 0 mm 0 W/m2
03:40 4.3 °C 3.4 °C 1002.9 hPa East 8 km/h 12.9 km/h 94 % 0 mm 0 W/m2
03:45 4.4 °C 3.5 °C 1002.9 hPa East 8 km/h 16.1 km/h 94 % 0 mm 0 W/m2
03:50 4.4 °C 3.5 °C 1002.9 hPa East 8 km/h 17.7 km/h 94 % 0 mm 0 W/m2
03:55 4.4 °C 3.5 °C 1002.9 hPa ESE 9.7 km/h 17.7 km/h 94 % 0 mm 0 W/m2
04:00 4.4 °C 3.5 °C 1002.9 hPa ESE 9.7 km/h 16.1 km/h 94 % 0 mm 0 W/m2
04:05 4.4 °C 3.5 °C 1002.9 hPa ESE 11.3 km/h 19.3 km/h 94 % 0 mm 0 W/m2
04:10 4.4 °C 3.4 °C 1002.6 hPa ESE 11.3 km/h 20.9 km/h 93 % 0 mm 0 W/m2
04:15 4.5 °C 3.4 °C 1002.6 hPa ESE 11.3 km/h 20.9 km/h 93 % 0 mm 0 W/m2
04:21 4.6 °C 3.6 °C 1002.6 hPa ESE 11.3 km/h 19.3 km/h 93 % 0 mm 0 W/m2
04:26 4.6 °C 3.6 °C 1002.6 hPa ESE 11.3 km/h 19.3 km/h 93 % 0 mm 0 W/m2
04:31 4.6 °C 3.4 °C 1002.6 hPa ESE 11.3 km/h 17.7 km/h 92 % 0 mm 0 W/m2
04:36 4.6 °C 3.4 °C 1002.6 hPa ESE 11.3 km/h 17.7 km/h 92 % 0 mm 0 W/m2
04:41 4.5 °C 3.3 °C 1002.6 hPa ESE 11.3 km/h 17.7 km/h 92 % 0 mm 0 W/m2
04:46 4.6 °C 3.4 °C 1002.6 hPa ESE 11.3 km/h 17.7 km/h 92 % 0 mm 0 W/m2
04:51 4.6 °C 3.4 °C 1002.6 hPa ESE 9.7 km/h 17.7 km/h 92 % 0 mm 0 W/m2
04:56 4.6 °C 3.3 °C 1002.6 hPa ESE 9.7 km/h 22.5 km/h 91 % 0 mm 0 W/m2
05:01 4.6 °C 3.3 °C 1002.6 hPa ESE 11.3 km/h 22.5 km/h 91 % 0 mm 0 W/m2
05:06 4.6 °C 3.3 °C 1002.6 hPa ESE 9.7 km/h 19.3 km/h 91 % 0 mm 0 W/m2
05:11 4.6 °C 3.3 °C 1002.6 hPa ESE 11.3 km/h 24.1 km/h 91 % 0 mm 0 W/m2
05:16 4.6 °C 3.1 °C 1002.6 hPa ESE 12.9 km/h 24.1 km/h 90 % 0 mm 0 W/m2
05:21 4.6 °C 3.1 °C 1002.6 hPa ESE 11.3 km/h 19.3 km/h 90 % 0 mm 0 W/m2
05:26 4.6 °C 3.1 °C 1002.6 hPa ESE 12.9 km/h 22.5 km/h 90 % 0 mm 0 W/m2
05:31 4.6 °C 3.1 °C 1002.6 hPa SE 12.9 km/h 22.5 km/h 90 % 0 mm 0 W/m2
05:36 4.7 °C 3.2 °C 1002.6 hPa SE 12.9 km/h 24.1 km/h 90 % 0 mm 0 W/m2
05:41 4.7 °C 3.2 °C 1002.6 hPa SE 12.9 km/h 24.1 km/h 90 % 0 mm 0 W/m2
05:46 4.7 °C 3.2 °C 1002.6 hPa SE 12.9 km/h 20.9 km/h 90 % 0 mm 0 W/m2
05:51 4.7 °C 3.2 °C 1002.6 hPa SE 14.5 km/h 25.7 km/h 90 % 0 mm 0 W/m2
05:56 4.7 °C 3.1 °C 1002.3 hPa SE 12.9 km/h 25.7 km/h 89 % 0 mm 0 W/m2
06:01 4.8 °C 3.2 °C 1002.6 hPa SE 12.9 km/h 22.5 km/h 89 % 0 mm 0 W/m2
06:06 4.8 °C 3.2 °C 1002.6 hPa SE 12.9 km/h 22.5 km/h 89 % 0 mm 0 W/m2
06:11 4.8 °C 3.2 °C 1002.6 hPa SE 11.3 km/h 20.9 km/h 89 % 0 mm 0 W/m2
06:16 4.8 °C 3.2 °C 1002.6 hPa SE 11.3 km/h 20.9 km/h 89 % 0 mm 5 W/m2
06:21 4.8 °C 3.2 °C 1002.6 hPa SE 11.3 km/h 20.9 km/h 89 % 0 mm 5 W/m2
06:26 4.8 °C 3.2 °C 1002.6 hPa SE 11.3 km/h 20.9 km/h 89 % 0 mm 7 W/m2
06:31 4.8 °C 3.2 °C 1002.6 hPa SE 12.9 km/h 22.5 km/h 89 % 0 mm 11 W/m2
06:36 4.8 °C 3.2 °C 1002.6 hPa SE 11.3 km/h 22.5 km/h 89 % 0 mm 12 W/m2
06:41 4.9 °C 3.2 °C 1002.6 hPa SE 11.3 km/h 19.3 km/h 89 % 0 mm 16 W/m2
06:46 4.9 °C 3.1 °C 1002.6 hPa SE 11.3 km/h 20.9 km/h 88 % 0 mm 18 W/m2
06:51 4.9 °C 3.1 °C 1002.6 hPa SE 12.9 km/h 20.9 km/h 88 % 0 mm 19 W/m2
06:56 5 °C 3.2 °C 1002.9 hPa SE 12.9 km/h 20.9 km/h 88 % 0 mm 16 W/m2
07:01 5 °C 3.2 °C 1002.9 hPa ESE 11.3 km/h 22.5 km/h 88 % 0 mm 21 W/m2
07:06 5 °C 3.2 °C 1002.9 hPa SE 12.9 km/h 24.1 km/h 88 % 0 mm 25 W/m2
07:11 5.1 °C 3.3 °C 1002.9 hPa SE 12.9 km/h 24.1 km/h 88 % 0 mm 23 W/m2
07:16 5.1 °C 3.3 °C 1002.9 hPa SE 12.9 km/h 20.9 km/h 88 % 0 mm 33 W/m2
07:21 5.1 °C 3.3 °C 1002.9 hPa SE 12.9 km/h 20.9 km/h 88 % 0 mm 47 W/m2
07:26 5.2 °C 3.4 °C 1002.9 hPa SE 12.9 km/h 20.9 km/h 88 % 0 mm 53 W/m2
07:31 5.2 °C 3.4 °C 1002.9 hPa SE 12.9 km/h 20.9 km/h 88 % 0 mm 51 W/m2
07:36 5.3 °C 3.3 °C 1002.9 hPa SE 12.9 km/h 24.1 km/h 87 % 0 mm 58 W/m2
07:41 5.3 °C 3.3 °C 1002.9 hPa SE 16.1 km/h 24.1 km/h 87 % 0 mm 58 W/m2
07:46 5.4 °C 3.4 °C 1002.9 hPa SE 14.5 km/h 22.5 km/h 87 % 0 mm 60 W/m2
07:51 5.4 °C 3.4 °C 1002.9 hPa SE 14.5 km/h 22.5 km/h 87 % 0 mm 65 W/m2
07:56 5.4 °C 3.4 °C 1002.9 hPa SE 12.9 km/h 20.9 km/h 87 % 0 mm 56 W/m2
08:01 5.5 °C 3.3 °C 1003.3 hPa SE 16.1 km/h 25.7 km/h 86 % 0 mm 54 W/m2
08:06 5.6 °C 3.4 °C 1003.3 hPa ESE 16.1 km/h 25.7 km/h 86 % 0 mm 70 W/m2
08:11 5.6 °C 3.4 °C 1003.3 hPa SE 12.9 km/h 24.1 km/h 86 % 0 mm 69 W/m2
08:16 5.6 °C 3.4 °C 1003.3 hPa SE 12.9 km/h 22.5 km/h 86 % 0 mm 74 W/m2
08:21 5.7 °C 3.6 °C 1003.3 hPa SE 14.5 km/h 24.1 km/h 86 % 0 mm 90 W/m2
08:26 5.7 °C 3.6 °C 1003.3 hPa SE 14.5 km/h 24.1 km/h 86 % 0 mm 121 W/m2
08:31 5.8 °C 3.6 °C 1003.3 hPa SE 14.5 km/h 22.5 km/h 86 % 0 mm 142 W/m2
08:36 5.9 °C 3.6 °C 1003.3 hPa SE 14.5 km/h 25.7 km/h 85 % 0 mm 171 W/m2
08:41 6.1 °C 3.8 °C 1003.3 hPa SE 14.5 km/h 25.7 km/h 85 % 0 mm 121 W/m2
08:46 6.2 °C 3.7 °C 1003.3 hPa SE 16.1 km/h 30.6 km/h 84 % 0 mm 67 W/m2
08:51 6.2 °C 3.7 °C 1003.3 hPa SE 16.1 km/h 30.6 km/h 84 % 0 mm 67 W/m2
08:56 6.2 °C 3.7 °C 1003.3 hPa SE 16.1 km/h 29 km/h 84 % 0 mm 62 W/m2
09:01 6.1 °C 3.6 °C 1003.6 hPa SE 14.5 km/h 24.1 km/h 84 % 0 mm 35 W/m2
09:07 6.1 °C 3.6 °C 1003.6 hPa SE 14.5 km/h 22.5 km/h 84 % 0 mm 56 W/m2
09:12 6.1 °C 3.8 °C 1003.6 hPa SE 14.5 km/h 24.1 km/h 85 % 0 mm 60 W/m2
09:17 6.1 °C 3.8 °C 1003.6 hPa SE 14.5 km/h 24.1 km/h 85 % 0 mm 84 W/m2
09:22 6.1 °C 3.8 °C 1003.6 hPa SE 12.9 km/h 24.1 km/h 85 % 0 mm 105 W/m2
09:27 6.2 °C 4.1 °C 1003.6 hPa ESE 9.7 km/h 24.1 km/h 86 % 0 mm 77 W/m2
09:32 6.2 °C 4.1 °C 1003.6 hPa ESE 9.7 km/h 16.1 km/h 86 % 0 mm 60 W/m2
09:37 6.1 °C 3.9 °C 1003.6 hPa ESE 9.7 km/h 17.7 km/h 86 % 0 mm 77 W/m2
09:42 6.1 °C 3.9 °C 1003.6 hPa ESE 12.9 km/h 24.1 km/h 86 % 0 mm 79 W/m2
09:47 6.1 °C 4.1 °C 1003.6 hPa ESE 14.5 km/h 24.1 km/h 87 % 0 mm 51 W/m2
09:52 6 °C 4 °C 1003.9 hPa ESE 14.5 km/h 29 km/h 87 % 0.25 mm 25 W/m2
09:57 5.8 °C 3.9 °C 1003.6 hPa ESE 14.5 km/h 29 km/h 88 % 0.51 mm 26 W/m2
10:02 5.6 °C 3.8 °C 1003.6 hPa ESE 14.5 km/h 29 km/h 88 % 0.76 mm 32 W/m2
10:07 5.4 °C 3.7 °C 1003.6 hPa ESE 14.5 km/h 24.1 km/h 89 % 1.02 mm 62 W/m2
10:12 5.4 °C 3.9 °C 1003.6 hPa ESE 12.9 km/h 20.9 km/h 90 % 1.52 mm 77 W/m2
10:17 5.4 °C 4.1 °C 1003.6 hPa ESE 12.9 km/h 22.5 km/h 91 % 1.52 mm 60 W/m2
10:22 5.4 °C 4.1 °C 1003.6 hPa ESE 12.9 km/h 22.5 km/h 91 % 1.52 mm 81 W/m2
10:27 5.4 °C 4.2 °C 1003.6 hPa ESE 12.9 km/h 20.9 km/h 92 % 1.52 mm 105 W/m2
10:32 5.4 °C 4.2 °C 1003.6 hPa ESE 11.3 km/h 20.9 km/h 92 % 1.78 mm 77 W/m2
10:37 5.4 °C 4.2 °C 1003.6 hPa ESE 11.3 km/h 19.3 km/h 92 % 1.78 mm 56 W/m2
20:45 4.9 °C 4.2 °C 1010 hPa ESE 3.2 km/h 11.3 km/h 95 % 0 mm 0 W/m2
20:46 4.9 °C 4.2 °C 1010 hPa ESE 3.2 km/h 11.3 km/h 95 % 0 mm 0 W/m2
20:47 4.9 °C 4.2 °C 1010 hPa ESE 4.8 km/h 11.3 km/h 95 % 0 mm 0 W/m2
20:48 4.9 °C 4.2 °C 1010 hPa ESE 4.8 km/h 11.3 km/h 95 % 0 mm 0 W/m2
20:53 4.9 °C 4.2 °C 1010 hPa SE 4.8 km/h 11.3 km/h 95 % 0 mm 0 W/m2
20:58 4.9 °C 4.2 °C 1010 hPa SE 3.2 km/h 8 km/h 95 % 0 mm 0 W/m2
21:04 4.8 °C 3.9 °C 1010.4 hPa ESE 3.2 km/h 9.7 km/h 94 % 0 mm 0 W/m2
21:09 4.7 °C 3.8 °C 1010.4 hPa ESE 3.2 km/h 9.7 km/h 94 % 0 mm 0 W/m2
21:15 4.6 °C 3.9 °C 1010.7 hPa SE 3.2 km/h 9.7 km/h 95 % 0 mm 0 W/m2
21:19 4.6 °C 3.9 °C 1010.7 hPa SE 3.2 km/h 8 km/h 95 % 0 mm 0 W/m2
21:24 4.5 °C 3.8 °C 1010.7 hPa SE 3.2 km/h 8 km/h 95 % 0 mm 0 W/m2
21:29 4.4 °C 3.7 °C 1010.7 hPa SE 3.2 km/h 9.7 km/h 95 % 0 mm 0 W/m2
21:35 4.4 °C 3.7 °C 1011.1 hPa SE 3.2 km/h 9.7 km/h 95 % 0 mm 0 W/m2
21:40 4.3 °C 3.6 °C 1011.1 hPa SE 3.2 km/h 9.7 km/h 95 % 0 mm 0 W/m2
21:45 4.2 °C 3.4 °C 1011.4 hPa SE 3.2 km/h 8 km/h 95 % 0 mm 0 W/m2
21:50 4.1 °C 3.4 °C 1011.4 hPa SE 3.2 km/h 8 km/h 95 % 0 mm 0 W/m2
21:55 4.1 °C 3.4 °C 1011.4 hPa SE 3.2 km/h 11.3 km/h 95 % 0 mm 0 W/m2
22:00 4.1 °C 3.4 °C 1011.4 hPa SSE 4.8 km/h 11.3 km/h 95 % 0 mm 0 W/m2
22:05 4 °C 3.3 °C 1011.4 hPa SSE 3.2 km/h 9.7 km/h 95 % 0 mm 0 W/m2
22:10 3.9 °C 3.2 °C 1011.4 hPa SSE 1.6 km/h 8 km/h 95 % 0 mm 0 W/m2
22:16 3.8 °C 3.1 °C 1011.7 hPa Calm   4.8 km/h 95 % 0 mm 0 W/m2
22:21 3.6 °C 2.9 °C 1011.7 hPa Calm   3.2 km/h 95 % 0 mm 0 W/m2
22:26 3.4 °C 2.7 °C 1011.7 hPa Calm     95 % 0 mm 0 W/m2
22:31 3.3 °C 2.6 °C 1011.7 hPa Calm     95 % 0 mm 0 W/m2
22:36 3.2 °C 2.5 °C 1011.7 hPa Calm     95 % 0 mm 0 W/m2
22:41 3.1 °C 2.4 °C 1011.7 hPa Calm     95 % 0 mm 0 W/m2
22:46 3 °C 2.3 °C 1012.1 hPa Calm     95 % 0 mm 0 W/m2
22:51 2.9 °C 2.2 °C 1012.1 hPa Calm     95 % 0 mm 0 W/m2
22:56 2.9 °C 2.2 °C 1012.1 hPa Calm     95 % 0 mm 0 W/m2
23:01 2.8 °C 2.1 °C 1012.1 hPa Calm     95 % 0 mm 0 W/m2
23:06 2.7 °C 2 °C 1012.1 hPa Calm     95 % 0 mm 0 W/m2
23:11 2.6 °C 1.9 °C 1012.1 hPa Calm     95 % 0 mm 0 W/m2
23:16 2.4 °C 1.7 °C 1012.1 hPa Calm     95 % 0 mm 0 W/m2
23:21 2.3 °C 1.6 °C 1012.4 hPa Calm   1.6 km/h 95 % 0 mm 0 W/m2
23:26 2.2 °C 1.5 °C 1012.4 hPa Calm   1.6 km/h 95 % 0 mm 0 W/m2
23:31 2.1 °C 1.4 °C 1012.4 hPa Calm     95 % 0 mm 0 W/m2
23:36 1.9 °C 1.2 °C 1012.4 hPa Calm   3.2 km/h 95 % 0 mm 0 W/m2
23:41 1.9 °C 1.3 °C 1012.4 hPa WNW 1.6 km/h 3.2 km/h 96 % 0 mm 0 W/m2
23:47 2 °C 1.4 °C 1012.8 hPa Calm   3.2 km/h 96 % 0 mm 0 W/m2
23:52 2 °C 1.4 °C 1012.8 hPa Calm   1.6 km/h 96 % 0 mm 0 W/m2
23:57 2 °C 1.4 °C 1012.8 hPa Calm     96 % 0 mm 0 W/m2
Delerius-Weather
Compliments of Weather Underground - 1.5 mb

Data updates at regular intervals.